createdAt,value
2023-03-10T00:01:51.832Z,5.97
2023-03-10T00:04:18.348Z,10.10
2023-03-10T00:06:44.816Z,6.40
2023-03-10T00:09:11.209Z,4.93
2023-03-10T00:11:37.863Z,6.70
2023-03-10T00:14:04.307Z,5.35
2023-03-10T00:16:30.764Z,4.88
2023-03-10T00:18:57.256Z,6.18
2023-03-10T00:21:23.892Z,5.80
2023-03-10T00:23:50.349Z,5.07
2023-03-10T00:26:16.761Z,4.38
2023-03-10T00:28:43.211Z,4.32
2023-03-10T00:31:09.956Z,4.60
2023-03-10T00:33:36.407Z,3.78
2023-03-10T00:36:02.976Z,5.65
2023-03-10T00:38:29.406Z,4.25
2023-03-10T00:40:55.803Z,4.70
2023-03-10T00:43:22.206Z,3.85
2023-03-10T00:45:48.677Z,4.43
2023-03-10T00:48:15.101Z,3.97
2023-03-10T00:50:41.476Z,3.95
2023-03-10T00:53:07.928Z,4.65
2023-03-10T00:55:34.336Z,3.80
2023-03-10T00:58:00.750Z,4.35
2023-03-10T01:00:27.388Z,3.70
2023-03-10T01:02:53.927Z,4.80
2023-03-10T01:05:20.347Z,4.07
2023-03-10T01:07:46.733Z,3.72
2023-03-10T01:10:13.229Z,4.20
2023-03-10T01:12:39.615Z,4.30
2023-03-10T01:15:06.062Z,4.20
2023-03-10T01:17:32.475Z,4.32
2023-03-10T01:19:58.875Z,4.80
2023-03-10T01:22:25.278Z,4.60
2023-03-10T01:24:51.707Z,4.70
2023-03-10T01:27:18.675Z,4.63
2023-03-10T01:29:45.109Z,4.07
2023-03-10T01:32:11.619Z,4.05
2023-03-10T01:34:38.044Z,4.05
2023-03-10T01:37:04.420Z,3.72
2023-03-10T01:39:30.878Z,3.70
2023-03-10T01:41:57.323Z,3.65
2023-03-10T01:44:23.918Z,3.60
2023-03-10T01:46:50.461Z,3.70
2023-03-10T01:49:16.942Z,3.63
2023-03-10T01:51:43.394Z,3.05
2023-03-10T01:54:10.021Z,4.50
2023-03-10T01:56:36.468Z,2.83
2023-03-10T01:59:02.988Z,3.25
2023-03-10T02:01:29.393Z,4.05
2023-03-10T02:03:55.775Z,3.85
2023-03-10T02:06:22.240Z,4.35
2023-03-10T02:08:48.693Z,3.33
2023-03-10T02:11:15.128Z,3.35
2023-03-10T02:13:41.575Z,3.30
2023-03-10T02:16:08.032Z,3.58
2023-03-10T02:18:34.459Z,3.70
2023-03-10T02:21:00.898Z,4.85
2023-03-10T02:23:27.466Z,2.97
2023-03-10T02:25:54.004Z,4.10
2023-03-10T02:28:20.400Z,3.40
2023-03-10T02:30:46.802Z,3.90
2023-03-10T02:33:13.235Z,4.20
2023-03-10T02:35:39.677Z,4.15
2023-03-10T02:38:06.064Z,3.85
2023-03-10T02:40:32.529Z,4.65
2023-03-10T02:42:58.995Z,3.88
2023-03-10T02:45:25.443Z,4.93
2023-03-10T02:47:51.921Z,5.30
2023-03-10T02:50:18.352Z,3.85
2023-03-10T02:52:44.782Z,3.97
2023-03-10T02:55:11.221Z,3.95
2023-03-10T02:57:37.656Z,4.43
2023-03-10T03:00:04.080Z,4.00
2023-03-10T03:02:30.541Z,4.13
2023-03-10T03:04:56.954Z,3.60
2023-03-10T03:07:23.558Z,4.30
2023-03-10T03:09:49.994Z,3.95
2023-03-10T03:12:16.455Z,4.70
2023-03-10T03:14:42.895Z,4.28
2023-03-10T03:17:09.295Z,5.70
2023-03-10T03:19:35.679Z,4.88
2023-03-10T03:22:02.055Z,5.22
2023-03-10T03:24:28.438Z,4.35
2023-03-10T03:26:54.887Z,5.85
2023-03-10T03:29:21.283Z,5.88
2023-03-10T03:31:47.739Z,5.65
2023-03-10T03:34:14.186Z,6.60
2023-03-10T03:36:40.697Z,5.78
2023-03-10T03:39:07.170Z,6.65
2023-03-10T03:41:33.554Z,5.38
2023-03-10T03:43:59.970Z,5.07
2023-03-10T03:46:26.446Z,4.43
2023-03-10T03:48:52.972Z,5.97
2023-03-10T03:51:19.442Z,5.60
2023-03-10T03:53:45.911Z,5.57
2023-03-10T03:56:12.376Z,5.22
2023-03-10T03:58:38.981Z,5.95
2023-03-10T04:01:05.420Z,5.63
2023-03-10T04:03:31.952Z,5.15
2023-03-10T04:05:58.358Z,6.22
2023-03-10T04:08:24.848Z,6.22
2023-03-10T04:10:51.272Z,5.25
2023-03-10T04:13:17.680Z,4.88
2023-03-10T04:15:44.085Z,4.82
2023-03-10T04:18:10.544Z,4.68
2023-03-10T04:20:36.982Z,5.00
2023-03-10T04:23:03.367Z,4.00
2023-03-10T04:25:29.806Z,4.05
2023-03-10T04:27:56.241Z,5.07
2023-03-10T04:30:22.624Z,3.97
2023-03-10T04:32:49.440Z,3.85
2023-03-10T04:35:15.918Z,4.18
2023-03-10T04:37:42.303Z,3.65
2023-03-10T04:40:08.910Z,5.05
2023-03-10T04:42:35.288Z,4.30
2023-03-10T04:45:01.665Z,4.13
2023-03-10T04:47:28.427Z,4.53
2023-03-10T04:49:54.917Z,4.07
2023-03-10T04:52:21.369Z,5.03
2023-03-10T04:54:47.837Z,5.72
2023-03-10T04:57:14.220Z,4.60
2023-03-10T04:59:40.602Z,5.53
2023-03-10T05:02:07.051Z,6.55
2023-03-10T05:04:33.481Z,6.70
2023-03-10T05:06:59.868Z,7.88
2023-03-10T05:09:26.255Z,7.65
2023-03-10T05:11:52.688Z,6.72
2023-03-10T05:14:19.125Z,6.78
2023-03-10T05:16:45.509Z,6.13
2023-03-10T05:19:12.039Z,6.15
2023-03-10T05:21:38.643Z,6.32
2023-03-10T05:24:05.108Z,5.38
2023-03-10T05:26:34.625Z,5.25
2023-03-10T05:29:01.322Z,5.30
2023-03-10T05:31:27.874Z,5.15
2023-03-10T05:33:54.390Z,4.45
2023-03-10T05:36:20.803Z,4.53
2023-03-10T05:38:47.264Z,5.50
2023-03-10T05:41:13.792Z,4.82
2023-03-10T05:43:40.294Z,4.63
2023-03-10T05:46:06.717Z,6.15
2023-03-10T05:48:33.186Z,5.15
2023-03-10T05:50:59.634Z,6.32
2023-03-10T05:53:26.020Z,5.55
2023-03-10T05:55:52.480Z,5.47
2023-03-10T05:58:18.965Z,6.47
2023-03-10T06:00:45.345Z,6.00
2023-03-10T06:03:11.842Z,5.88
2023-03-10T06:05:38.377Z,6.47
2023-03-10T06:08:04.846Z,6.50
2023-03-10T06:10:31.293Z,6.88
2023-03-10T06:12:57.753Z,6.05
2023-03-10T06:15:24.151Z,5.38
2023-03-10T06:17:50.613Z,6.07
2023-03-10T06:20:17.010Z,7.38
2023-03-10T06:22:43.466Z,8.98
2023-03-10T06:25:10.092Z,8.30
2023-03-10T06:27:36.505Z,6.40
2023-03-10T06:30:02.917Z,7.10
2023-03-10T06:32:29.459Z,8.02
2023-03-10T06:34:55.925Z,6.72
2023-03-10T06:37:22.373Z,6.32
2023-03-10T06:39:48.781Z,6.80
2023-03-10T06:42:15.210Z,6.97
2023-03-10T06:44:41.698Z,6.38
2023-03-10T06:47:08.100Z,7.45
2023-03-10T06:49:34.486Z,5.95
2023-03-10T06:52:00.889Z,6.57
2023-03-10T06:54:27.501Z,6.90
2023-03-10T06:56:54.021Z,6.07
2023-03-10T06:59:20.469Z,5.78
2023-03-10T07:01:46.900Z,6.28
2023-03-10T07:04:13.415Z,6.10
2023-03-10T07:06:39.897Z,5.75
2023-03-10T07:09:06.344Z,6.47
2023-03-10T07:11:32.764Z,6.20
2023-03-10T07:13:59.224Z,5.85
2023-03-10T07:16:25.744Z,6.78
2023-03-10T07:18:52.192Z,5.85
2023-03-10T07:21:18.554Z,5.85
2023-03-10T07:23:44.968Z,5.78
2023-03-10T07:26:11.342Z,4.82
2023-03-10T07:28:37.715Z,5.45
2023-03-10T07:31:04.152Z,5.00
2023-03-10T07:33:30.649Z,6.10
2023-03-10T07:35:57.155Z,6.15
2023-03-10T07:38:23.888Z,4.40
2023-03-10T07:40:50.338Z,3.75
2023-03-10T07:43:16.755Z,4.82
2023-03-10T07:45:43.493Z,4.18
2023-03-10T07:48:09.961Z,4.82
2023-03-10T07:50:36.414Z,4.20
2023-03-10T07:53:02.810Z,4.00
2023-03-10T07:55:29.208Z,3.60
2023-03-10T07:57:55.568Z,4.25
2023-03-10T08:00:22.026Z,4.47
2023-03-10T08:02:48.447Z,4.07
2023-03-10T08:05:14.901Z,4.07
2023-03-10T08:07:41.749Z,3.58
2023-03-10T08:10:08.411Z,4.22
2023-03-10T08:12:34.910Z,3.20
2023-03-10T08:15:01.335Z,3.03
2023-03-10T08:17:27.746Z,3.65
2023-03-10T08:19:54.204Z,4.05
2023-03-10T08:22:22.630Z,4.60
2023-03-10T08:24:49.102Z,3.95
2023-03-10T08:27:15.540Z,3.70
2023-03-10T08:29:41.969Z,3.38
2023-03-10T08:32:08.528Z,3.47
2023-03-10T08:34:34.917Z,3.58
2023-03-10T08:37:01.350Z,4.00
2023-03-10T08:39:27.829Z,3.00
2023-03-10T08:41:54.257Z,3.72
2023-03-10T08:44:20.691Z,2.97
2023-03-10T08:46:47.230Z,3.83
2023-03-10T08:49:13.641Z,4.45
2023-03-10T08:51:40.105Z,4.40
2023-03-10T08:54:06.511Z,3.83
2023-03-10T08:56:32.939Z,3.80
2023-03-10T08:58:59.416Z,5.68
2023-03-10T09:01:25.892Z,4.78
2023-03-10T09:03:52.328Z,4.00
2023-03-10T09:06:18.825Z,4.65
2023-03-10T09:08:45.219Z,4.13
2023-03-10T09:11:11.731Z,4.60
2023-03-10T09:13:38.303Z,5.18
2023-03-10T09:16:04.804Z,4.32
2023-03-10T09:18:31.378Z,3.83
2023-03-10T09:20:57.816Z,3.92
2023-03-10T09:23:24.299Z,4.18
2023-03-10T09:25:50.749Z,4.40
2023-03-10T09:28:18.746Z,3.63
2023-03-10T09:30:45.372Z,3.28
2023-03-10T09:33:11.819Z,3.33
2023-03-10T09:35:41.939Z,3.08
2023-03-10T09:38:14.502Z,2.50
2023-03-10T09:40:40.933Z,3.00
2023-03-10T09:43:07.387Z,4.15
2023-03-10T09:45:33.815Z,3.22
2023-03-10T09:48:00.231Z,2.65
2023-03-10T09:50:26.651Z,3.13
2023-03-10T09:52:53.084Z,3.30
2023-03-10T09:55:19.509Z,3.05
2023-03-10T09:57:45.975Z,3.03
2023-03-10T10:00:12.361Z,1.55
2023-03-10T10:02:38.825Z,3.05
2023-03-10T10:05:05.293Z,2.65
2023-03-10T10:07:31.765Z,2.42
2023-03-10T10:09:58.219Z,1.90
2023-03-10T10:12:24.980Z,2.40
2023-03-10T10:14:57.170Z,4.25
2023-03-10T10:17:24.244Z,3.33
2023-03-10T10:19:50.655Z,3.38
2023-03-10T10:22:17.081Z,3.70
2023-03-10T10:24:43.555Z,2.83
2023-03-10T10:27:09.959Z,2.20
2023-03-10T10:29:36.462Z,2.42
2023-03-10T10:32:03.094Z,2.35
2023-03-10T10:34:29.512Z,1.60
2023-03-10T10:36:55.918Z,2.50
2023-03-10T10:39:22.375Z,2.42
2023-03-10T10:41:48.843Z,1.58
2023-03-10T10:44:15.246Z,2.58
2023-03-10T10:46:41.712Z,2.50
2023-03-10T10:49:08.153Z,2.35
2023-03-10T10:51:34.624Z,1.63
2023-03-10T10:54:01.086Z,1.77
2023-03-10T10:56:27.575Z,2.70
2023-03-10T10:58:54.158Z,2.92
2023-03-10T11:01:20.663Z,2.60
2023-03-10T11:03:47.083Z,4.07
2023-03-10T11:06:13.466Z,2.50
2023-03-10T11:08:39.946Z,2.33
2023-03-10T11:11:06.393Z,2.67
2023-03-10T11:13:32.870Z,2.40
2023-03-10T11:15:59.362Z,2.40
2023-03-10T11:18:25.795Z,2.08
2023-03-10T11:20:52.286Z,2.70
2023-03-10T11:23:18.733Z,3.78
2023-03-10T11:25:45.165Z,3.03
2023-03-10T11:28:11.629Z,2.90
2023-03-10T11:30:38.114Z,4.05
2023-03-10T11:33:04.581Z,3.20
2023-03-10T11:35:31.053Z,2.78
2023-03-10T11:37:57.467Z,3.72
2023-03-10T11:40:24.031Z,3.13
2023-03-10T11:42:50.444Z,3.35
2023-03-10T11:45:16.831Z,3.50
2023-03-10T11:47:46.275Z,3.30
2023-03-10T11:50:12.754Z,3.38
2023-03-10T11:52:39.137Z,3.65
2023-03-10T11:55:05.538Z,4.05
2023-03-10T11:57:32.007Z,2.85
2023-03-10T11:59:58.469Z,3.30
2023-03-10T12:02:25.116Z,2.85
2023-03-10T12:04:51.545Z,3.83
2023-03-10T12:07:17.999Z,3.90
2023-03-10T12:09:44.379Z,4.15
2023-03-10T12:12:10.810Z,3.25
2023-03-10T12:14:37.250Z,2.95
2023-03-10T12:17:03.744Z,3.00
2023-03-10T12:19:30.283Z,2.95
2023-03-10T12:21:56.784Z,3.38
2023-03-10T12:24:23.231Z,3.55
2023-03-10T12:26:49.659Z,3.47
2023-03-10T12:29:16.147Z,4.60
2023-03-10T12:31:42.587Z,5.00
2023-03-10T12:34:09.016Z,4.50
2023-03-10T12:36:35.478Z,6.30
2023-03-10T12:39:01.892Z,6.57
2023-03-10T12:41:28.464Z,5.90
2023-03-10T12:43:55.150Z,6.55
2023-03-10T12:46:21.595Z,6.82
2023-03-10T12:48:49.010Z,7.40
2023-03-10T12:51:18.133Z,6.80
2023-03-10T12:53:44.875Z,7.13
2023-03-10T12:56:11.287Z,7.15
2023-03-10T12:58:37.746Z,6.53
2023-03-10T13:01:04.207Z,7.43
2023-03-10T13:03:30.765Z,5.90
2023-03-10T13:05:57.221Z,5.97
2023-03-10T13:08:23.796Z,5.22
2023-03-10T13:10:50.440Z,5.70
2023-03-10T13:13:16.894Z,5.30
2023-03-10T13:15:43.317Z,5.35
2023-03-10T13:18:09.751Z,6.00
2023-03-10T13:20:36.151Z,5.93
2023-03-10T13:23:02.625Z,6.07
2023-03-10T13:25:29.019Z,6.35
2023-03-10T13:27:55.478Z,5.53
2023-03-10T13:30:21.884Z,6.35
2023-03-10T13:32:48.392Z,6.25
2023-03-10T13:35:14.858Z,6.10
2023-03-10T13:37:41.323Z,7.70
2023-03-10T13:40:07.765Z,5.60
2023-03-10T13:42:43.831Z,6.03
2023-03-10T13:45:11.051Z,6.55
2023-03-10T13:47:37.439Z,6.95
2023-03-10T13:50:03.872Z,7.15
2023-03-10T13:52:30.284Z,7.10
2023-03-10T13:54:56.770Z,6.72
2023-03-10T13:57:23.171Z,6.13
2023-03-10T13:59:49.638Z,6.93
2023-03-10T14:02:16.062Z,6.03
2023-03-10T14:04:42.488Z,6.03
2023-03-10T14:07:08.884Z,6.65
2023-03-10T14:09:35.310Z,6.18
2023-03-10T14:12:01.735Z,6.30
2023-03-10T14:14:28.391Z,8.38
2023-03-10T14:16:54.900Z,9.18
2023-03-10T14:19:21.395Z,8.68
2023-03-10T14:22:00.974Z,6.95
2023-03-10T14:24:28.409Z,9.45
2023-03-10T14:26:55.150Z,9.68
2023-03-10T14:29:21.607Z,9.52
2023-03-10T14:31:48.050Z,8.27
2023-03-10T14:34:14.477Z,9.32
2023-03-10T14:36:40.893Z,8.63
2023-03-10T14:39:09.409Z,9.55
2023-03-10T14:41:35.987Z,8.02
2023-03-10T14:44:02.359Z,7.95
2023-03-10T14:46:28.930Z,7.60
2023-03-10T14:48:55.491Z,7.88
2023-03-10T14:51:34.502Z,8.48
2023-03-10T14:54:01.788Z,7.70
2023-03-10T14:56:28.411Z,8.55
2023-03-10T14:58:54.813Z,6.78
2023-03-10T15:01:21.396Z,7.03
2023-03-10T15:03:47.842Z,6.47
2023-03-10T15:06:14.238Z,6.55
2023-03-10T15:08:40.703Z,6.65
2023-03-10T15:11:07.181Z,6.18
2023-03-10T15:13:33.562Z,6.68
2023-03-10T15:16:00.038Z,5.65
2023-03-10T15:18:26.536Z,7.22
2023-03-10T15:20:52.946Z,6.47
2023-03-10T15:23:20.177Z,7.72
2023-03-10T15:25:46.853Z,8.25
2023-03-10T15:28:13.308Z,7.97
2023-03-10T15:30:39.841Z,8.45
2023-03-10T15:33:06.237Z,8.90
2023-03-10T15:35:32.723Z,9.93
2023-03-10T15:37:59.258Z,10.95
2023-03-10T15:40:25.705Z,10.52
2023-03-10T15:42:52.086Z,11.60
2023-03-10T15:45:18.517Z,10.55
2023-03-10T15:47:44.973Z,13.40
2023-03-10T15:50:11.598Z,10.77
2023-03-10T15:52:38.023Z,12.18
2023-03-10T15:55:04.471Z,10.13
2023-03-10T15:57:30.920Z,12.90
2023-03-10T15:59:57.361Z,9.05
2023-03-10T16:02:23.756Z,9.55
2023-03-10T16:04:50.263Z,10.70
2023-03-10T16:07:16.721Z,10.57
2023-03-10T16:09:43.174Z,10.30
2023-03-10T16:12:09.780Z,10.43
2023-03-10T16:14:36.239Z,12.60
2023-03-10T16:17:02.616Z,12.32
2023-03-10T16:19:29.055Z,11.98
2023-03-10T16:21:55.508Z,9.40
2023-03-10T16:24:21.913Z,9.82
2023-03-10T16:26:48.368Z,9.93
2023-03-10T16:29:14.820Z,10.02
2023-03-10T16:31:41.303Z,11.20
2023-03-10T16:34:07.843Z,10.18
2023-03-10T16:36:34.253Z,10.32
2023-03-10T16:39:00.662Z,9.93
2023-03-10T16:41:29.344Z,8.60
2023-03-10T16:43:56.284Z,8.20
2023-03-10T16:46:22.833Z,9.93
2023-03-10T16:48:49.275Z,7.53
2023-03-10T16:51:15.732Z,8.88
2023-03-10T16:53:42.131Z,9.98
2023-03-10T16:56:08.746Z,9.60
2023-03-10T16:58:35.228Z,11.30
2023-03-10T17:01:01.697Z,11.85
2023-03-10T17:03:28.424Z,9.52
2023-03-10T17:05:54.857Z,10.27
2023-03-10T17:08:21.326Z,12.57
2023-03-10T17:10:47.789Z,11.23
2023-03-10T17:13:14.252Z,9.93
2023-03-10T17:15:40.710Z,10.60
2023-03-10T17:18:07.232Z,9.63
2023-03-10T17:20:33.713Z,10.88
2023-03-10T17:23:00.121Z,8.75
2023-03-10T17:25:26.547Z,9.32
2023-03-10T17:27:52.934Z,8.48
2023-03-10T17:30:19.373Z,10.55
2023-03-10T17:32:45.837Z,7.45
2023-03-10T17:35:12.538Z,8.55
2023-03-10T17:37:39.032Z,8.15
2023-03-10T17:40:05.494Z,7.43
2023-03-10T17:42:31.965Z,8.48
2023-03-10T17:44:58.377Z,9.18
2023-03-10T17:47:24.881Z,9.27
2023-03-10T17:49:51.420Z,9.73
2023-03-10T17:52:17.863Z,8.60
2023-03-10T17:54:44.409Z,9.93
2023-03-10T17:57:10.862Z,10.85
2023-03-10T17:59:37.312Z,11.13
2023-03-10T18:02:03.749Z,11.50
2023-03-10T18:04:30.194Z,12.38
2023-03-10T18:06:56.645Z,10.80
2023-03-10T18:09:23.062Z,12.30
2023-03-10T18:11:49.442Z,11.65
2023-03-10T18:14:15.917Z,12.65
2023-03-10T18:16:42.362Z,9.73
2023-03-10T18:19:10.422Z,11.02
2023-03-10T18:21:37.361Z,11.02
2023-03-10T18:24:03.840Z,10.68
2023-03-10T18:26:30.338Z,9.27
2023-03-10T18:28:56.800Z,10.32
2023-03-10T18:31:23.226Z,10.82
2023-03-10T18:33:49.840Z,9.07
2023-03-10T18:36:16.265Z,10.77
2023-03-10T18:38:42.669Z,8.57
2023-03-10T18:41:09.100Z,7.93
2023-03-10T18:43:35.520Z,6.68
2023-03-10T18:46:02.050Z,9.40
2023-03-10T18:48:28.593Z,7.88
2023-03-10T18:50:55.001Z,6.30
2023-03-10T18:53:21.455Z,7.22
2023-03-10T18:55:47.849Z,6.40
2023-03-10T18:58:14.230Z,4.15
2023-03-10T19:00:40.660Z,5.53
2023-03-10T19:03:07.149Z,4.65
2023-03-10T19:05:33.548Z,5.15
2023-03-10T19:07:59.930Z,4.28
2023-03-10T19:10:26.364Z,3.65
2023-03-10T19:12:52.788Z,3.38
2023-03-10T19:15:19.207Z,3.95
2023-03-10T19:17:45.653Z,2.65
2023-03-10T19:20:12.156Z,2.28
2023-03-10T19:22:38.728Z,2.72
2023-03-10T19:25:05.149Z,2.35
2023-03-10T19:27:31.593Z,3.08
2023-03-10T19:29:58.000Z,2.67
2023-03-10T19:32:24.514Z,4.68
2023-03-10T19:34:50.954Z,3.38
2023-03-10T19:37:17.423Z,2.65
2023-03-10T19:39:43.865Z,2.90
2023-03-10T19:42:10.250Z,2.47
2023-03-10T19:44:36.625Z,2.53
2023-03-10T19:47:03.051Z,2.47
2023-03-10T19:49:29.515Z,4.78
2023-03-10T19:51:55.972Z,3.60
2023-03-10T19:54:22.412Z,2.78
2023-03-10T19:56:48.878Z,3.60
2023-03-10T19:59:15.337Z,3.70
2023-03-10T20:01:41.804Z,3.90
2023-03-10T20:04:08.217Z,3.30
2023-03-10T20:06:34.616Z,3.67
2023-03-10T20:09:01.044Z,4.45
2023-03-10T20:11:27.512Z,2.97
2023-03-10T20:13:53.944Z,3.55
2023-03-10T20:16:20.439Z,3.13
2023-03-10T20:18:46.905Z,2.80
2023-03-10T20:21:13.322Z,2.67
2023-03-10T20:23:39.766Z,2.38
2023-03-10T20:26:06.160Z,2.38
2023-03-10T20:28:32.611Z,2.97
2023-03-10T20:30:59.061Z,3.10
2023-03-10T20:33:25.490Z,3.88
2023-03-10T20:35:51.991Z,3.17
2023-03-10T20:38:18.425Z,3.47
2023-03-10T20:40:44.875Z,3.97
2023-03-10T20:43:12.332Z,3.33
2023-03-10T20:45:38.985Z,4.97
2023-03-10T20:48:05.454Z,3.38
2023-03-10T20:50:31.906Z,3.60
2023-03-10T20:52:58.313Z,3.75
2023-03-10T20:55:24.765Z,2.75
2023-03-10T20:57:51.189Z,4.22
2023-03-10T21:00:17.676Z,4.47
2023-03-10T21:02:44.142Z,5.53
2023-03-10T21:05:10.558Z,5.78
2023-03-10T21:07:37.007Z,2.35
2023-03-10T21:10:03.545Z,4.05
2023-03-10T21:12:30.014Z,3.92
2023-03-10T21:14:56.393Z,3.58
2023-03-10T21:17:22.809Z,3.67
2023-03-10T21:19:49.193Z,3.75
2023-03-10T21:22:15.642Z,3.47
2023-03-10T21:24:42.117Z,2.75
2023-03-10T21:27:08.818Z,4.18
2023-03-10T21:29:35.287Z,5.05
2023-03-10T21:32:01.758Z,5.63
2023-03-10T21:34:28.373Z,4.50
2023-03-10T21:36:54.814Z,4.50
2023-03-10T21:39:21.233Z,4.28
2023-03-10T21:41:47.660Z,4.43
2023-03-10T21:44:14.101Z,4.45
2023-03-10T21:46:40.531Z,4.07
2023-03-10T21:49:06.959Z,3.97
2023-03-10T21:51:33.977Z,7.15
2023-03-10T21:54:00.426Z,7.10
2023-03-10T21:56:26.829Z,4.22
2023-03-10T21:58:53.245Z,6.70
2023-03-10T22:01:19.852Z,3.10
2023-03-10T22:03:46.240Z,2.65
2023-03-10T22:06:12.678Z,4.28
2023-03-10T22:08:39.132Z,4.03
2023-03-10T22:11:05.589Z,2.97
2023-03-10T22:13:31.990Z,4.07
2023-03-10T22:15:58.472Z,2.63
2023-03-10T22:18:24.892Z,7.40
2023-03-10T22:20:51.325Z,3.40
2023-03-10T22:23:17.729Z,4.63
2023-03-10T22:25:44.160Z,2.65
2023-03-10T22:28:10.616Z,3.53
2023-03-10T22:30:37.093Z,3.60
2023-03-10T22:33:03.536Z,4.18
2023-03-10T22:35:30.051Z,2.70
2023-03-10T22:37:56.460Z,3.88
2023-03-10T22:40:22.931Z,3.78
2023-03-10T22:42:49.395Z,4.35
2023-03-10T22:45:15.796Z,3.13
2023-03-10T22:47:42.187Z,5.50
2023-03-10T22:50:08.808Z,4.72
2023-03-10T22:52:35.253Z,7.10
2023-03-10T22:55:01.704Z,2.85
2023-03-10T22:57:28.365Z,2.58
2023-03-10T22:59:54.851Z,2.42
2023-03-10T23:02:21.246Z,4.05
2023-03-10T23:04:47.622Z,4.25
2023-03-10T23:07:14.059Z,2.88
2023-03-10T23:09:40.464Z,4.15
2023-03-10T23:12:06.878Z,2.47
2023-03-10T23:14:33.319Z,2.92
2023-03-10T23:16:59.785Z,7.35
2023-03-10T23:19:26.231Z,3.53
2023-03-10T23:21:52.603Z,1.75
2023-03-10T23:24:19.237Z,1.70
2023-03-10T23:26:45.649Z,4.00
2023-03-10T23:29:12.051Z,1.85
2023-03-10T23:31:38.699Z,1.38
2023-03-10T23:34:05.306Z,3.75
2023-03-10T23:36:31.696Z,1.88
2023-03-10T23:38:58.113Z,3.15
2023-03-10T23:41:24.736Z,1.25
2023-03-10T23:43:51.119Z,2.83
2023-03-10T23:46:17.617Z,2.60
2023-03-10T23:48:44.128Z,1.40
2023-03-10T23:51:10.546Z,2.45
2023-03-10T23:53:36.944Z,2.13
2023-03-10T23:56:03.396Z,1.73
2023-03-10T23:58:29.834Z,1.95
